createdAt,value
2023-01-08T00:01:10.061Z,96018.31
2023-01-08T00:03:56.107Z,96017.50
2023-01-08T00:06:41.784Z,96013.47
2023-01-08T00:09:27.478Z,96008.59
2023-01-08T00:12:13.235Z,96013.94
2023-01-08T00:14:59.050Z,96013.59
2023-01-08T00:17:44.850Z,96010.03
2023-01-08T00:20:30.594Z,96008.88
2023-01-08T00:23:18.101Z,96006.13
2023-01-08T00:26:06.216Z,96011.34
2023-01-08T00:28:51.912Z,96005.94
2023-01-08T00:31:37.769Z,96002.56
2023-01-08T00:34:23.722Z,95995.91
2023-01-08T00:37:09.213Z,96002.56
2023-01-08T00:39:55.100Z,96010.56
2023-01-08T00:42:40.759Z,96012.19
2023-01-08T00:45:28.193Z,96005.25
2023-01-08T00:48:14.013Z,96010.09
2023-01-08T00:51:02.069Z,96008.47
2023-01-08T00:53:47.863Z,96011.16
2023-01-08T00:56:33.579Z,96008.13
2023-01-08T00:59:19.286Z,96013.13
2023-01-08T01:02:05.238Z,96007.69
2023-01-08T01:04:51.258Z,96012.44
2023-01-08T01:07:37.427Z,96021.50
2023-01-08T01:10:23.801Z,96017.22
2023-01-08T01:13:10.801Z,96016.41
2023-01-08T01:16:00.327Z,96013.41
2023-01-08T01:18:46.518Z,96018.72
2023-01-08T01:21:33.128Z,96021.25
2023-01-08T01:24:19.055Z,96020.13
2023-01-08T01:27:04.847Z,96019.78
2023-01-08T01:29:50.468Z,96018.38
2023-01-08T01:32:36.183Z,96012.75
2023-01-08T01:35:21.900Z,96005.22
2023-01-08T01:38:07.645Z,96001.41
2023-01-08T01:40:53.472Z,96001.16
2023-01-08T01:43:41.316Z,96000.59
2023-01-08T01:46:38.612Z,96009.88
2023-01-08T01:49:24.365Z,95995.16
2023-01-08T01:52:10.157Z,96002.13
2023-01-08T01:55:00.247Z,95996.22
2023-01-08T01:57:52.268Z,96000.50
2023-01-08T02:00:38.573Z,95994.13
2023-01-08T02:03:27.685Z,95990.31
2023-01-08T02:06:35.294Z,95988.69
2023-01-08T02:09:29.704Z,95988.09
2023-01-08T02:12:26.882Z,95976.78
2023-01-08T02:15:13.288Z,95979.00
2023-01-08T02:18:06.060Z,95979.00
2023-01-08T02:21:10.692Z,95976.22
2023-01-08T02:24:14.401Z,95977.47
2023-01-08T02:27:01.528Z,95976.44
2023-01-08T02:29:48.051Z,95978.56
2023-01-08T02:32:37.524Z,95971.25
2023-01-08T02:35:23.223Z,95976.34
2023-01-08T02:38:14.211Z,95973.34
2023-01-08T02:41:10.223Z,95964.44
2023-01-08T02:43:57.482Z,95957.75
2023-01-08T02:46:43.902Z,95945.94
2023-01-08T02:49:33.159Z,95970.00
2023-01-08T02:52:19.758Z,95956.13
2023-01-08T02:55:05.925Z,95961.88
2023-01-08T02:57:52.164Z,95967.69
2023-01-08T03:00:38.056Z,95957.50
2023-01-08T03:03:26.179Z,95962.59
2023-01-08T03:06:14.556Z,95966.28
2023-01-08T03:09:00.894Z,95962.25
2023-01-08T03:12:02.516Z,95958.09
2023-01-08T03:15:04.655Z,95967.91
2023-01-08T03:17:53.708Z,95975.53
2023-01-08T03:20:39.921Z,95972.50
2023-01-08T03:23:26.928Z,95970.88
2023-01-08T03:26:16.046Z,95970.88
2023-01-08T03:29:03.318Z,95973.31
2023-01-08T03:31:50.870Z,95969.84
2023-01-08T03:34:38.517Z,95969.63
2023-01-08T03:37:28.477Z,95972.50
2023-01-08T03:40:22.147Z,95977.38
2023-01-08T03:43:07.706Z,95979.56
2023-01-08T03:45:57.446Z,95967.31
2023-01-08T03:48:44.076Z,95966.75
2023-01-08T03:51:44.957Z,95964.53
2023-01-08T03:54:34.228Z,95972.06
2023-01-08T03:57:20.107Z,95972.06
2023-01-08T04:00:06.800Z,95971.97
2023-01-08T04:02:52.883Z,95977.28
2023-01-08T04:05:38.585Z,95970.66
2023-01-08T04:08:24.394Z,95984.53
2023-01-08T04:11:10.067Z,95984.97
2023-01-08T04:13:56.136Z,95985.91
2023-01-08T04:16:42.100Z,95989.59
2023-01-08T04:19:27.877Z,95985.19
2023-01-08T04:22:13.443Z,95984.72
2023-01-08T04:24:59.117Z,95989.47
2023-01-08T04:27:44.887Z,95981.16
2023-01-08T04:30:31.541Z,95983.56
2023-01-08T04:33:23.554Z,95988.53
2023-01-08T04:36:10.117Z,95985.66
2023-01-08T04:39:00.221Z,95984.47
2023-01-08T04:41:49.567Z,95981.59
2023-01-08T04:44:36.474Z,95982.41
2023-01-08T04:47:24.262Z,95978.34
2023-01-08T04:50:21.432Z,95978.03
2023-01-08T04:53:07.327Z,95985.19
2023-01-08T04:55:53.360Z,95989.09
2023-01-08T04:58:40.034Z,95985.84
2023-01-08T05:01:27.663Z,95991.97
2023-01-08T05:04:13.493Z,95984.22
2023-01-08T05:06:59.067Z,95989.53
2023-01-08T05:09:44.980Z,95995.28
2023-01-08T05:12:30.656Z,95989.28
2023-01-08T05:15:16.400Z,95990.91
2023-01-08T05:18:04.462Z,95999.06
2023-01-08T05:20:50.375Z,95991.34
2023-01-08T05:23:36.115Z,95991.81
2023-01-08T05:26:21.736Z,96000.34
2023-01-08T05:29:10.080Z,96003.25
2023-01-08T05:32:04.054Z,96003.69
2023-01-08T05:34:50.503Z,96005.53
2023-01-08T05:37:36.963Z,95999.63
2023-01-08T05:40:23.072Z,96004.34
2023-01-08T05:43:09.278Z,96001.69
2023-01-08T05:45:58.312Z,96006.66
2023-01-08T05:48:47.470Z,96008.25
2023-01-08T05:51:33.213Z,96005.59
2023-01-08T05:54:18.704Z,96000.97
2023-01-08T05:57:04.436Z,96003.63
2023-01-08T06:00:01.695Z,96017.34
2023-01-08T06:03:03.868Z,96016.53
2023-01-08T06:05:50.956Z,96017.34
2023-01-08T06:08:36.516Z,96009.25
2023-01-08T06:11:22.320Z,96012.13
2023-01-08T06:14:07.981Z,96007.50
2023-01-08T06:16:53.855Z,96000.44
2023-01-08T06:19:39.545Z,96006.78
2023-01-08T06:22:25.538Z,96008.41
2023-01-08T06:25:11.376Z,96008.63
2023-01-08T06:27:57.044Z,96006.19
2023-01-08T06:31:04.824Z,96007.44
2023-01-08T06:34:01.732Z,96004.19
2023-01-08T06:36:47.312Z,96015.75
2023-01-08T06:39:32.998Z,96014.72
2023-01-08T06:42:18.667Z,96010.47
2023-01-08T06:45:04.784Z,96011.06
2023-01-08T06:47:50.930Z,96019.72
2023-01-08T06:50:36.569Z,96020.31
2023-01-08T06:53:22.263Z,96019.50
2023-01-08T06:56:10.895Z,96024.00
2023-01-08T06:58:56.699Z,96020.31
2023-01-08T07:01:42.520Z,96018.69
2023-01-08T07:04:28.500Z,96024.00
2023-01-08T07:07:14.912Z,96018.69
2023-01-08T07:10:00.876Z,96023.56
2023-01-08T07:12:46.455Z,96025.19
2023-01-08T07:15:32.067Z,96024.72
2023-01-08T07:18:17.744Z,96019.41
2023-01-08T07:21:04.496Z,96026.34
2023-01-08T07:23:50.402Z,96022.22
2023-01-08T07:26:36.666Z,96029.97
2023-01-08T07:29:22.375Z,96033.19
2023-01-08T07:32:07.968Z,96026.03
2023-01-08T07:34:54.811Z,96031.47
2023-01-08T07:37:42.480Z,96025.00
2023-01-08T07:40:28.097Z,96023.38
2023-01-08T07:43:14.049Z,96030.28
2023-01-08T07:46:02.811Z,96035.59
2023-01-08T07:48:48.855Z,96035.16
2023-01-08T07:51:34.958Z,96029.84
2023-01-08T07:54:21.871Z,96031.47
2023-01-08T07:57:07.855Z,96031.91
2023-01-08T07:59:53.549Z,96033.09
2023-01-08T08:02:39.394Z,96031.47
2023-01-08T08:05:25.145Z,96035.88
2023-01-08T08:08:12.161Z,96036.47
2023-01-08T08:10:58.072Z,96034.84
2023-01-08T08:13:45.128Z,96031.31
2023-01-08T08:16:31.205Z,96031.69
2023-01-08T08:19:16.929Z,96028.31
2023-01-08T08:22:02.727Z,96022.13
2023-01-08T08:24:48.409Z,96031.84
2023-01-08T08:27:34.275Z,96016.03
2023-01-08T08:30:20.986Z,96014.09
2023-01-08T08:33:07.627Z,96015.81
2023-01-08T08:35:53.496Z,96014.34
2023-01-08T08:38:40.022Z,96011.81
2023-01-08T08:41:26.071Z,96016.19
2023-01-08T08:44:11.890Z,96017.69
2023-01-08T08:46:58.053Z,96017.59
2023-01-08T08:49:43.746Z,96011.34
2023-01-08T08:52:30.979Z,96008.34
2023-01-08T08:55:17.922Z,96011.94
2023-01-08T08:58:06.933Z,96000.59
2023-01-08T09:00:52.895Z,96002.34
2023-01-08T09:03:38.748Z,95996.56
2023-01-08T09:06:27.625Z,96001.19
2023-01-08T09:09:15.546Z,96000.03
2023-01-08T09:12:01.447Z,95994.94
2023-01-08T09:14:50.223Z,96001.13
2023-01-08T09:17:37.021Z,95992.97
2023-01-08T09:20:24.797Z,96006.31
2023-01-08T09:23:10.895Z,95982.47
2023-01-08T09:26:01.908Z,95993.53
2023-01-08T09:28:48.087Z,95986.56
2023-01-08T10:05:38.059Z,95928.88
2023-01-08T10:08:23.966Z,95920.88
2023-01-08T10:11:11.091Z,95923.59
2023-01-08T10:13:57.758Z,95913.94
2023-01-08T10:16:43.980Z,95909.13
2023-01-08T10:19:29.873Z,95908.59
2023-01-08T10:22:18.131Z,95905.91
2023-01-08T10:25:07.959Z,95875.56
2023-01-08T10:28:23.391Z,95895.41
2023-01-08T10:31:15.497Z,95896.69
2023-01-08T10:34:55.277Z,95892.31
2023-01-08T10:37:42.670Z,95897.63
2023-01-08T10:40:30.851Z,95897.03
2023-01-08T10:43:49.828Z,95881.31
2023-01-08T10:46:47.748Z,95878.00
2023-01-08T10:49:39.334Z,95876.78
2023-01-08T10:52:29.530Z,95873.91
2023-01-08T10:55:48.221Z,95869.94
2023-01-08T10:58:43.673Z,95864.94
2023-01-08T11:02:11.555Z,95862.31
2023-01-08T11:04:57.460Z,95852.47
2023-01-08T11:07:56.963Z,95854.13
2023-01-08T11:10:42.905Z,95850.16
2023-01-08T11:13:29.709Z,95837.50
2023-01-08T11:16:15.688Z,95838.59
2023-01-08T11:19:01.621Z,95828.41
2023-01-08T11:21:58.547Z,95827.56
2023-01-08T11:24:44.901Z,95819.41
2023-01-08T11:27:39.830Z,95813.47
2023-01-08T11:30:27.421Z,95807.47
2023-01-08T11:33:19.075Z,95798.88
2023-01-08T11:36:18.776Z,95796.50
2023-01-08T11:39:05.932Z,95785.63
2023-01-08T11:42:12.924Z,95786.50
2023-01-08T11:45:12.078Z,95784.69
2023-01-08T11:48:06.272Z,95779.06
2023-01-08T11:51:03.681Z,95771.25
2023-01-08T11:54:33.179Z,95763.78
2023-01-08T11:57:46.926Z,95762.72
2023-01-08T12:00:59.179Z,95756.94
2023-01-08T12:03:55.920Z,95747.94
2023-01-08T12:07:14.223Z,95743.75
2023-01-08T12:10:46.665Z,95740.81
2023-01-08T12:14:02.506Z,95730.66
2023-01-08T12:17:24.952Z,95733.09
2023-01-08T12:20:50.817Z,95721.66
2023-01-08T12:24:01.633Z,95723.28
2023-01-08T12:27:17.134Z,95719.00
2023-01-08T12:30:15.215Z,95713.09
2023-01-08T12:33:17.182Z,95713.78
2023-01-08T12:36:10.094Z,95712.50
2023-01-08T12:39:00.877Z,95710.16
2023-01-08T12:41:47.290Z,95705.84
2023-01-08T12:44:34.568Z,95703.50
2023-01-08T12:47:25.669Z,95712.75
2023-01-08T12:50:35.913Z,95707.22
2023-01-08T12:53:30.734Z,95708.00
2023-01-08T12:56:22.491Z,95709.09
2023-01-08T12:59:34.480Z,95703.31
2023-01-08T13:02:49.610Z,95702.41
2023-01-08T13:05:37.173Z,95697.75
2023-01-08T13:08:26.155Z,95693.44
2023-01-08T13:11:12.937Z,95693.59
2023-01-08T13:14:01.591Z,95691.97
2023-01-08T13:16:47.681Z,95683.34
2023-01-08T13:19:45.766Z,95683.00
2023-01-08T13:22:34.220Z,95681.97
2023-01-08T13:25:20.162Z,95679.47
2023-01-08T13:28:47.936Z,95682.59
2023-01-08T13:31:40.995Z,95679.47
2023-01-08T13:34:42.280Z,95677.41
2023-01-08T13:37:28.561Z,95673.88
2023-01-08T13:40:46.420Z,95672.81
2023-01-08T13:43:39.156Z,95679.16
2023-01-08T13:46:25.272Z,95666.13
2023-01-08T13:49:45.227Z,95671.91
2023-01-08T13:52:39.947Z,95680.78
2023-01-08T13:55:31.776Z,95668.56
2023-01-08T13:58:26.668Z,95668.69
2023-01-08T14:01:13.490Z,95667.84
2023-01-08T14:03:59.350Z,95654.09
2023-01-08T14:06:45.209Z,95672.28
2023-01-08T14:09:33.207Z,95667.47
2023-01-08T14:12:23.268Z,95664.53
2023-01-08T14:15:25.216Z,95675.66
2023-01-08T14:18:13.980Z,95673.81
2023-01-08T14:20:59.978Z,95671.06
2023-01-08T14:23:47.492Z,95677.41
2023-01-08T14:26:38.832Z,95672.50
2023-01-08T14:29:36.675Z,95672.34
2023-01-08T14:32:29.354Z,95668.53
2023-01-08T14:35:18.219Z,95661.16
2023-01-08T14:38:05.738Z,95663.06
2023-01-08T14:41:02.487Z,95659.84
2023-01-08T14:43:56.535Z,95661.38
2023-01-08T14:46:46.157Z,95654.19
2023-01-08T14:49:34.675Z,95651.59
2023-01-08T14:52:21.284Z,95658.91
2023-01-08T14:55:07.280Z,95653.50
2023-01-08T14:57:55.045Z,95655.31
2023-01-08T15:00:53.357Z,95654.19
2023-01-08T15:03:42.655Z,95660.56
2023-01-08T15:06:31.127Z,95648.38
2023-01-08T15:09:34.700Z,95639.94
2023-01-08T15:12:30.695Z,95647.13
2023-01-08T15:15:23.567Z,95645.69
2023-01-08T15:18:12.242Z,95644.25
2023-01-08T15:20:58.398Z,95646.75
2023-01-08T15:23:50.627Z,95654.53
2023-01-08T15:26:43.319Z,95656.53
2023-01-08T15:29:34.615Z,95654.00
2023-01-08T15:32:22.500Z,95650.97
2023-01-08T15:35:16.263Z,95654.28
2023-01-08T15:38:02.202Z,95647.72
2023-01-08T15:40:48.481Z,95647.00
2023-01-08T15:43:34.461Z,95643.34
2023-01-08T15:46:20.177Z,95647.25
2023-01-08T15:49:06.038Z,95643.59
2023-01-08T15:51:52.370Z,95646.09
2023-01-08T15:54:38.479Z,95648.63
2023-01-08T15:57:24.704Z,95648.16
2023-01-08T16:00:13.085Z,95647.69
2023-01-08T16:03:00.083Z,95635.44
2023-01-08T16:05:46.066Z,95644.63
2023-01-08T16:08:31.761Z,95644.13
2023-01-08T16:11:18.128Z,95639.91
2023-01-08T16:14:04.038Z,95646.41
2023-01-08T16:16:49.946Z,95643.78
2023-01-08T16:19:35.915Z,95640.66
2023-01-08T16:22:21.802Z,95645.81
2023-01-08T16:25:09.320Z,95663.81
2023-01-08T16:27:55.161Z,95660.63
2023-01-08T16:30:42.712Z,95664.97
2023-01-08T16:33:28.927Z,95664.47
2023-01-08T16:36:14.900Z,95657.00
2023-01-08T16:39:00.796Z,95662.66
2023-01-08T16:41:49.526Z,95671.59
2023-01-08T16:44:36.553Z,95678.31
2023-01-08T16:47:22.578Z,95680.19
2023-01-08T16:50:10.249Z,95670.00
2023-01-08T16:52:55.873Z,95675.91
2023-01-08T16:55:41.840Z,95681.34
2023-01-08T16:58:29.510Z,95682.44
2023-01-08T17:01:15.576Z,95677.91
2023-01-08T17:04:01.904Z,95686.25
2023-01-08T17:06:48.039Z,95678.25
2023-01-08T17:09:34.014Z,95695.44
2023-01-08T17:12:22.643Z,95693.34
2023-01-08T17:15:08.700Z,95690.16
2023-01-08T17:17:55.134Z,95694.50
2023-01-08T17:20:41.171Z,95695.28
2023-01-08T17:23:29.658Z,95697.72
2023-01-08T17:26:19.874Z,95695.59
2023-01-08T17:29:05.800Z,95688.66
2023-01-08T17:31:51.584Z,95699.94
2023-01-08T17:34:37.344Z,95698.31
2023-01-08T17:37:22.918Z,95696.19
2023-01-08T17:40:09.448Z,95703.72
2023-01-08T17:42:55.808Z,95706.41
2023-01-08T17:45:41.623Z,95713.91
2023-01-08T17:48:27.418Z,95718.50
2023-01-08T17:51:14.456Z,95721.44
2023-01-08T17:54:01.408Z,95716.59
2023-01-08T17:56:48.984Z,95727.88
2023-01-08T17:59:35.124Z,95721.44
2023-01-08T18:02:21.157Z,95724.16
2023-01-08T18:05:07.699Z,95737.00
2023-01-08T18:07:53.351Z,95732.19
2023-01-08T18:10:40.099Z,95752.00
2023-01-08T18:13:25.781Z,95742.88
2023-01-08T18:16:13.664Z,95738.34
2023-01-08T18:19:00.111Z,95741.81
2023-01-08T18:21:47.212Z,95743.44
2023-01-08T18:24:33.891Z,95747.69
2023-01-08T18:27:19.641Z,95740.19
2023-01-08T18:30:06.030Z,95742.34
2023-01-08T18:32:51.994Z,95750.91
2023-01-08T18:35:37.691Z,95752.22
2023-01-08T18:38:23.381Z,95749.84
2023-01-08T18:41:10.632Z,95741.25
2023-01-08T18:43:56.586Z,95744.47
2023-01-08T18:46:42.586Z,95738.28
2023-01-08T18:49:28.697Z,95752.50
2023-01-08T18:52:15.356Z,95746.03
2023-01-08T18:55:00.931Z,95749.28
2023-01-08T18:57:49.042Z,95750.84
2023-01-08T19:00:35.521Z,95756.16
2023-01-08T19:03:22.810Z,95760.72
2023-01-08T19:06:17.001Z,95766.59
2023-01-08T19:09:04.039Z,95769.50
2023-01-08T19:11:49.869Z,95770.06
2023-01-08T19:14:35.719Z,95778.06
2023-01-08T19:17:21.727Z,95776.44
2023-01-08T19:20:08.333Z,95778.56
2023-01-08T19:22:54.184Z,95777.00
2023-01-08T19:25:40.657Z,95761.41
2023-01-08T19:28:26.495Z,95768.63
2023-01-08T19:31:15.094Z,95767.31
2023-01-08T19:34:01.894Z,95771.56
2023-01-08T19:36:48.109Z,95774.75
2023-01-08T19:39:34.076Z,95768.34
2023-01-08T19:42:38.435Z,95768.56
2023-01-08T19:45:24.751Z,95754.88
2023-01-08T19:48:10.797Z,95763.66
2023-01-08T19:50:56.773Z,95759.66
2023-01-08T19:53:42.745Z,95763.06
2023-01-08T19:56:29.325Z,95770.28
2023-01-08T19:59:15.136Z,95771.28
2023-01-08T20:02:01.099Z,95780.66
2023-01-08T20:04:47.318Z,95772.59
2023-01-08T20:07:33.333Z,95774.69
2023-01-08T20:10:19.184Z,95776.03
2023-01-08T20:13:05.162Z,95788.84
2023-01-08T20:15:57.587Z,95782.41
2023-01-08T20:18:44.229Z,95787.25
2023-01-08T20:21:33.859Z,95786.13
2023-01-08T20:24:19.725Z,95779.72
2023-01-08T20:27:07.375Z,95778.59
2023-01-08T20:29:53.369Z,95794.63
2023-01-08T20:32:39.139Z,95805.81
2023-01-08T20:35:24.911Z,95798.59
2023-01-08T20:38:10.431Z,95780.63
2023-01-08T20:40:56.288Z,95786.47
2023-01-08T20:43:41.990Z,95780.88
2023-01-08T20:46:28.868Z,95777.03
2023-01-08T20:49:16.654Z,95787.44
2023-01-08T20:52:04.660Z,95786.31
2023-01-08T20:54:53.071Z,95780.38
2023-01-08T20:57:39.196Z,95779.25
2023-01-08T21:00:25.894Z,95794.69
2023-01-08T21:03:12.063Z,95793.59
2023-01-08T21:05:58.130Z,95803.97
2023-01-08T21:08:45.909Z,95784.91
2023-01-08T21:11:31.971Z,95793.47
2023-01-08T21:14:18.016Z,95783.31
2023-01-08T21:17:03.771Z,95786.78
2023-01-08T21:19:49.414Z,95783.31
2023-01-08T21:22:35.292Z,95787.34
2023-01-08T21:25:21.176Z,95780.13
2023-01-08T21:28:08.269Z,95779.91
2023-01-08T21:30:54.398Z,95779.09
2023-01-08T21:33:41.650Z,95783.63
2023-01-08T21:36:29.603Z,95770.53
2023-01-08T21:39:15.466Z,95778.50
2023-01-08T21:42:19.896Z,95781.41
2023-01-08T21:45:24.952Z,95770.41
2023-01-08T21:48:12.997Z,95766.63
2023-01-08T21:50:59.250Z,95768.78
2023-01-08T21:53:45.229Z,95772.97
2023-01-08T21:56:31.275Z,95765.47
2023-01-08T21:59:18.073Z,95764.38
2023-01-08T22:02:05.089Z,95760.53
2023-01-08T22:04:54.777Z,95772.31
2023-01-08T22:07:40.727Z,95766.66
2023-01-08T22:10:26.590Z,95771.72
2023-01-08T22:13:12.427Z,95764.75
2023-01-08T22:16:03.497Z,95755.38
2023-01-08T22:18:49.393Z,95756.19
2023-01-08T22:21:35.403Z,95755.38
2023-01-08T22:24:21.253Z,95749.25
2023-01-08T22:27:08.276Z,95755.06
2023-01-08T22:29:54.658Z,95750.25
2023-01-08T22:32:40.514Z,95744.38
2023-01-08T22:35:27.681Z,95744.84
2023-01-08T22:38:13.973Z,95752.53
2023-01-08T22:40:59.763Z,95759.19
2023-01-08T22:43:45.599Z,95749.34
2023-01-08T22:46:31.480Z,95748.00
2023-01-08T22:49:17.349Z,95745.34
2023-01-08T22:52:03.371Z,95749.13
2023-01-08T22:54:49.226Z,95739.59
2023-01-08T22:57:35.133Z,95744.41
2023-01-08T23:00:20.860Z,95739.63
2023-01-08T23:03:07.153Z,95746.66
2023-01-08T23:06:02.975Z,95738.66
2023-01-08T23:08:49.331Z,95733.31
2023-01-08T23:11:35.284Z,95734.66
2023-01-08T23:14:20.930Z,95725.06
2023-01-08T23:17:07.156Z,95715.72
2023-01-08T23:19:53.030Z,95712.00
2023-01-08T23:22:38.988Z,95709.91
2023-01-08T23:25:24.903Z,95711.53
2023-01-08T23:28:10.480Z,95711.53
2023-01-08T23:30:56.178Z,95713.59
2023-01-08T23:33:42.181Z,95705.50
2023-01-08T23:36:27.924Z,95705.34
2023-01-08T23:39:13.640Z,95708.47
2023-01-08T23:41:59.375Z,95700.91
2023-01-08T23:44:44.954Z,95708.34
2023-01-08T23:47:30.720Z,95712.56
2023-01-08T23:50:16.657Z,95701.59
2023-01-08T23:53:02.885Z,95692.25
2023-01-08T23:55:48.766Z,95685.78
2023-01-08T23:58:34.636Z,95689.00
